^^
Meteo Knjazevac Station Historical Data
Daily Summary for June 20, 2022 Units:  English    Metric   Both
Daily Weekly Monthly Yearly Custom
  High: Low: Average:
Temperature: 87.8 °F 51.4 °F 66.2 °F
Dew Point: 64.1 °F 49.8 °F 55.2 °F
Humidity: 96% 37% 73%
Wind Speed: 6mph 0mph 2.1mph
Wind Gust: 12mph - -
Wind- - SW
Pressure: 30.08 in 29.95 in -
Precipitation: 0.00 in    
Historical Graphs
 
 
Tabular Data for June 20, 2022
Time Temperature Dew Point Pressure Wind Wind Speed Wind Gust Humidity Rainfall Rate (Hourly) solar Conditions
00:00 59.2 °F 54.3 °F 30.07 in West 2 mph 5 mph 84% 0.00 in 0 W/m2
00:10 58.8 °F 54.3 °F 30.08 in West 2 mph 5 mph 85% 0.00 in 0 W/m2
00:20 58.6 °F 54.1 °F 30.08 in West 2 mph 5 mph 85% 0.00 in 0 W/m2
00:30 58.3 °F 53.8 °F 30.07 in West 2 mph 5 mph 85% 0.00 in 0 W/m2
00:40 57.9 °F 53.4 °F 30.07 in WSW 2 mph 4 mph 85% 0.00 in 0 W/m2
00:50 57.6 °F 53.4 °F 30.07 in WNW 2 mph 5 mph 86% 0.00 in 0 W/m2
01:00 57.6 °F 53.4 °F 30.07 in WNW 2 mph 4 mph 86% 0.00 in 0 W/m2
01:10 57.4 °F 53.2 °F 30.06 in West 2 mph 3 mph 86% 0.00 in 0 W/m2
01:20 56.8 °F 53 °F 30.06 in WSW 1 mph 2 mph 87% 0.00 in 0 W/m2
01:30 56.5 °F 53 °F 30.06 in West 2 mph 4 mph 88% 0.00 in 0 W/m2
01:40 56.1 °F 52.6 °F 30.06 in West 2 mph 4 mph 88% 0.00 in 0 W/m2
01:50 55.8 °F 52.6 °F 30.06 in WSW 1 mph 3 mph 89% 0.00 in 0 W/m2
02:00 55.2 °F 52 °F 30.06 in WSW 1 mph 3 mph 89% 0.00 in 0 W/m2
02:10 55 °F 52.2 °F 30.06 in West 2 mph 4 mph 90% 0.00 in 0 W/m2
02:20 54.9 °F 52 °F 30.06 in West 2 mph 3 mph 90% 0.00 in 0 W/m2
02:30 54.7 °F 51.8 °F 30.06 in West 1 mph 4 mph 90% 0.00 in 0 W/m2
02:40 54.7 °F 51.8 °F 30.06 in West 2 mph 3 mph 90% 0.00 in 0 W/m2
02:50 54.6 °F 52 °F 30.06 in WNW 3 mph 5 mph 91% 0.00 in 0 W/m2
03:00 54.3 °F 51.7 °F 30.06 in WNW 1 mph 5 mph 91% 0.00 in 0 W/m2
03:10 54.1 °F 51.6 °F 30.06 in WNW 2 mph 3 mph 91% 0.00 in 0 W/m2
03:20 53.9 °F 51.3 °F 30.06 in WSW 1 mph 5 mph 91% 0.00 in 0 W/m2
03:30 53.4 °F 50.9 °F 30.05 in West 2 mph 3 mph 91% 0.00 in 0 W/m2
03:40 53.2 °F 50.7 °F 30.05 in West 1 mph 3 mph 91% 0.00 in 0 W/m2
03:50 53.1 °F 51.1 °F 30.05 in West 2 mph 3 mph 93% 0.00 in 0 W/m2
04:00 52.9 °F 50.9 °F 30.05 in West 2 mph 3 mph 93% 0.00 in 0 W/m2
04:10 52.5 °F 50 °F 30.05 in WNW 1 mph 2 mph 91% 0.00 in 0 W/m2
04:20 52.3 °F 50.4 °F 30.05 in West 1 mph 2 mph 93% 0.00 in 0 W/m2
04:30 52.2 °F 50.2 °F 30.05 in WNW 1 mph 2 mph 93% 0.00 in 0 W/m2
04:40 52.1 °F 50.1 °F 30.05 in WNW 2 mph 3 mph 93% 0.00 in 0 W/m2
04:50 52 °F 50.3 °F 30.05 in Calm   3 mph 94% 0.00 in 3 W/m2
05:00 52 °F 50.3 °F 30.05 in Calm   3 mph 94% 0.00 in 8 W/m2
05:10 51.8 °F 50.1 °F 30.05 in WNW 1 mph 2 mph 94% 0.00 in 13 W/m2
05:20 51.6 °F 49.9 °F 30.05 in West 1 mph 2 mph 94% 0.00 in 22 W/m2
05:30 51.4 °F 49.8 °F 30.05 in WNW 2 mph 4 mph 94% 0.00 in 28 W/m2
05:40 51.6 °F 50.2 °F 30.05 in West 2 mph 4 mph 95% 0.00 in 34 W/m2
05:50 51.6 °F 50.2 °F 30.05 in WSW 1 mph 4 mph 95% 0.00 in 74 W/m2
06:00 51.4 °F 49.8 °F 30.05 in WSW 1 mph 2 mph 94% 0.00 in 96 W/m2
06:10 51.4 °F 50.1 °F 30.05 in WNW 1 mph 3 mph 95% 0.00 in 120 W/m2
06:20 52 °F 50.9 °F 30.05 in WNW 1 mph 4 mph 96% 0.00 in 144 W/m2
06:30 52.3 °F 51 °F 30.05 in WNW 2 mph 3 mph 95% 0.00 in 169 W/m2
06:40 52.9 °F 51.5 °F 30.04 in NW 1 mph 5 mph 95% 0.00 in 196 W/m2
06:50 53.4 °F 52 °F 30.04 in NW 1 mph 2 mph 95% 0.00 in 224 W/m2
07:00 54 °F 52.6 °F 30.04 in Calm   2 mph 95% 0.00 in 254 W/m2
07:10 54.7 °F 53.3 °F 30.04 in WNW 2 mph 3 mph 95% 0.00 in 289 W/m2
07:20 55.8 °F 54.1 °F 30.04 in WNW 3 mph 6 mph 94% 0.00 in 325 W/m2
07:30 56.8 °F 54.2 °F 30.04 in West 2 mph 6 mph 91% 0.00 in 352 W/m2
07:40 57.8 °F 54.9 °F 30.04 in West 2 mph 4 mph 90% 0.00 in 383 W/m2
07:50 58.9 °F 56 °F 30.04 in WSW 1 mph 3 mph 90% 0.00 in 420 W/m2
08:00 60 °F 56.7 °F 30.03 in West 1 mph 3 mph 89% 0.00 in 453 W/m2
08:10 61.2 °F 58 °F 30.03 in WSW 1 mph 3 mph 89% 0.00 in 491 W/m2
08:20 63.3 °F 58.7 °F 30.03 in WSW 1 mph 6 mph 85% 0.00 in 531 W/m2
08:30 65.9 °F 59.9 °F 30.03 in SW 1 mph 3 mph 81% 0.00 in 564 W/m2
08:40 68.1 °F 59.8 °F 30.03 in WSW 2 mph 5 mph 75% 0.00 in 594 W/m2
08:50 69.7 °F 60.7 °F 30.03 in WSW 2 mph 5 mph 73% 0.00 in 628 W/m2
09:00 71.3 °F 61 °F 30.02 in WSW 1 mph 5 mph 70% 0.00 in 655 W/m2
09:10 72.8 °F 61.6 °F 30.02 in SW 1 mph 3 mph 68% 0.00 in 685 W/m2
09:20 74.2 °F 63 °F 30.01 in Calm   4 mph 68% 0.00 in 713 W/m2
09:30 75.6 °F 62.6 °F 30.01 in ESE 1 mph 5 mph 64% 0.00 in 740 W/m2
09:40 76.8 °F 62.8 °F 30.01 in ESE 3 mph 8 mph 62% 0.00 in 767 W/m2
09:50 77.7 °F 62.2 °F 30.01 in Calm   9 mph 59% 0.00 in 792 W/m2
10:00 78.7 °F 64.1 °F 30.01 in East 3 mph 8 mph 61% 0.00 in 817 W/m2
10:10 79.7 °F 62.6 °F 30.01 in ESE 3 mph 9 mph 56% 0.00 in 837 W/m2
10:20 80.1 °F 62.5 °F 30.01 in ESE 5 mph 9 mph 55% 0.00 in 856 W/m2
10:30 80.8 °F 61.5 °F 30.00 in SE 2 mph 12 mph 52% 0.00 in 873 W/m2
10:40 81.1 °F 60.2 °F 30.00 in SSE 3 mph 8 mph 49% 0.00 in 653 W/m2
10:50 81.6 °F 61.1 °F 30.00 in SE 3 mph 9 mph 50% 0.00 in 905 W/m2
11:00 81.8 °F 58.3 °F 30.00 in SSW 5 mph 8 mph 45% 0.00 in 919 W/m2
11:10 82.1 °F 57.4 °F 30.00 in SW 5 mph 8 mph 43% 0.00 in 931 W/m2
11:20 82.5 °F 57.7 °F 29.99 in South 3 mph 9 mph 43% 0.00 in 513 W/m2
11:30 82.9 °F 56.1 °F 29.99 in SSE 5 mph 9 mph 40% 0.00 in 952 W/m2
11:40 83.3 °F 55.8 °F 29.99 in SW 2 mph 12 mph 39% 0.00 in 960 W/m2
11:50 83.5 °F 55.2 °F 29.99 in South 3 mph 11 mph 38% 0.00 in 961 W/m2
12:00 84.2 °F 56.6 °F 29.99 in SE 3 mph 8 mph 39% 0.00 in 696 W/m2
12:10 84.1 °F 56.5 °F 29.98 in SSE 6 mph 10 mph 39% 0.00 in 344 W/m2
12:20 84.4 °F 57.4 °F 29.98 in SSW 1 mph 7 mph 40% 0.00 in 793 W/m2
12:30 84.6 °F 56.2 °F 29.98 in SW 5 mph 9 mph 38% 0.00 in 919 W/m2
12:40 85 °F 56.6 °F 29.97 in SE 3 mph 9 mph 38% 0.00 in 529 W/m2
12:50 85.2 °F 57.4 °F 29.97 in West 5 mph 9 mph 39% 0.00 in 976 W/m2
13:00 85.6 °F 58.5 °F 29.97 in SW 3 mph 9 mph 40% 0.00 in 972 W/m2
13:10 85.8 °F 58.7 °F 29.96 in SSW 2 mph 9 mph 40% 0.00 in 967 W/m2
13:20 86 °F 57.4 °F 29.96 in South 2 mph 6 mph 38% 0.00 in 960 W/m2
13:30 86 °F 57.4 °F 29.96 in SE 2 mph 8 mph 38% 0.00 in 952 W/m2
13:40 86 °F 56.7 °F 29.96 in SSE 2 mph 8 mph 37% 0.00 in 942 W/m2
13:50 86.6 °F 58 °F 29.95 in ENE 5 mph 9 mph 38% 0.00 in 931 W/m2
14:00 86.8 °F 58.9 °F 29.95 in NE 5 mph 9 mph 39% 0.00 in 919 W/m2
14:10 87.4 °F 58.7 °F 29.95 in NNW 3 mph 12 mph 38% 0.00 in 905 W/m2
14:20 87.4 °F 59.4 °F 29.95 in North 5 mph 8 mph 39% 0.00 in 890 W/m2
14:30 87.8 °F 59.8 °F 29.95 in NNE 1 mph 8 mph 39% 0.00 in 873 W/m2
14:40 87.8 °F 59.8 °F 29.95 in SSE 3 mph 8 mph 39% 0.00 in 856 W/m2
Knjazevac, Serbia
Compliments of Weather Underground - 2 mb